Weather reports worldwide

Advertisment
Sciacca, Italy (16436): temperature & dewpoint: 12.07.2019 07:00:00 - 18.07.2019 07:00:00 (CEST)Sciacca, Italy (16436): wind speed: 12.07.2019 07:00:00 - 18.07.2019 07:00:00 (CEST)Sciacca, Italy (16436): wind direction: 12.07.2019 07:00:00 - 18.07.2019 07:00:00 (CEST)Sciacca, Italy (16436): reduced air pressure: 12.07.2019 07:00:00 - 18.07.2019 07:00:00 (CEST)Sciacca, Italy (16436): precipitation: 12.07.2019 07:00:00 - 18.07.2019 07:00:00 (CEST)
Date & Time tt [°C] td [°C] ff [km/h] ff [kn] dd ppp [hPa] rr [mm]
18.07.2019 07:00:00 20,5 16,5 9 5 NNE 1022,6 -
18.07.2019 06:00:00 20,3 16,5 8 4 N 1022,4 -
18.07.2019 05:00:00 18,7 15,1 8 4 NNE 1022,9 -
18.07.2019 04:00:00 18,9 15,1 4 2 NE 1022,8 -
18.07.2019 03:00:00 18,7 15,3 4 2 NE 1022,9 -
18.07.2019 02:00:00 19,6 15,2 0 0 N 1022,9 -
18.07.2019 01:00:00 20,8 14,1 0 0 N 1022,9 -
18.07.2019 00:00:00 21,8 16,0 5 3 NE 1022,7 -
17.07.2019 23:00:00 21,7 12,2 0 0 N 1022,4 -
17.07.2019 22:00:00 23,8 13,6 8 4 NNW 1022,1 -
17.07.2019 21:00:00 24,8 15,1 11 6 N 1021,7 -
17.07.2019 20:00:00 26,3 15,0 13 7 NNW 1021,2 -
17.07.2019 19:00:00 27,8 15,1 15 8 NNW 1020,7 -
17.07.2019 18:00:00 28,6 15,5 11 6 W 1020,7 -
17.07.2019 17:00:00 28,3 19,5 24 13 W 1021,0 -
17.07.2019 16:00:00 29,0 16,2 21 11 WSW 1020,8 -
17.07.2019 15:00:00 29,1 15,9 22 12 W 1021,4 -
17.07.2019 14:00:00 28,6 17,4 21 11 WSW 1021,6 -
17.07.2019 13:00:00 28,1 17,3 21 11 W 1022,0 -
17.07.2019 12:00:00 27,1 15,1 11 6 NNW 1022,4 -
17.07.2019 11:00:00 27,0 15,9 15 8 NNW 1022,5 -
17.07.2019 10:00:00 25,3 15,8 18 10 NNW 1022,7 -
17.07.2019 09:00:00 24,6 19,6 11 6 ESE 1022,9 -
17.07.2019 08:00:00 23,2 19,9 5 3 NW 1022,8 -
17.07.2019 07:00:00 21,2 18,3 8 4 N 1022,9 -
17.07.2019 06:00:00 21,2 18,9 9 5 NNE 1022,9 -
17.07.2019 05:00:00 21,7 19,9 15 8 NNW 1022,8 -
17.07.2019 04:00:00 21,7 19,9 8 4 N 1022,9 -
17.07.2019 03:00:00 21,4 19,6 5 3 WNW 1023,0 -
17.07.2019 02:00:00 20,4 18,8 5 3 SW 1023,3 -
17.07.2019 01:00:00 21,0 18,7 2 1 WSW 1023,3 -
17.07.2019 00:00:00 22,3 20,0 15 8 NNW 1022,9 -
16.07.2019 23:00:00 22,5 19,6 0 0 N 1022,4 -
16.07.2019 22:00:00 22,9 18,2 11 6 NNW 1021,2 -
16.07.2019 21:00:00 23,1 18,1 11 6 N 1020,5 -
16.07.2019 20:00:00 24,1 19,1 15 8 N 1019,8 -
16.07.2019 19:00:00 24,8 18,4 22 12 N 1018,5 -
16.07.2019 18:00:00 25,7 18,6 24 13 NNW 1018,0 -
16.07.2019 17:00:00 26,1 18,9 28 15 NNW 1017,2 -
16.07.2019 16:00:00 25,4 19,7 26 14 NNW 1016,3 -
16.07.2019 15:00:00 24,6 20,0 11 6 NNE 1016,5 -
16.07.2019 14:00:00 23,5 21,5 21 11 S 1017,3 -
16.07.2019 13:00:00 23,5 20,4 16 9 WSW 1016,7 -
16.07.2019 12:00:00 23,3 19,8 15 8 W 1016,7 -
16.07.2019 11:00:00 20,7 19,5 13 7 W 1016,6 -
16.07.2019 10:00:00 20,8 17,3 11 6 N 1017,0 -
16.07.2019 09:00:00 23,2 18,7 16 9 W 1016,5 -
16.07.2019 08:00:00 22,0 18,9 15 8 W 1016,5 -
16.07.2019 07:00:00 21,4 18,9 18 10 W 1016,6 -
16.07.2019 06:00:00 21,5 19,0 22 12 W 1016,4 -
16.07.2019 05:00:00 22,1 20,1 9 5 WNW 1016,7 -
16.07.2019 04:00:00 22,3 19,2 9 5 WSW 1016,7 -
16.07.2019 03:00:00 22,7 18,8 15 8 W 1017,0 -
16.07.2019 02:00:00 22,8 19,1 4 2 WNW 1017,4 -
16.07.2019 01:00:00 - - - - - - -
16.07.2019 00:00:00 - - - - - - -
15.07.2019 23:00:00 24,0 19,2 5 3 E 1017,8 -
15.07.2019 22:00:00 - - - - - - -
15.07.2019 21:00:00 - - - - - - -
15.07.2019 20:00:00 26,2 22,0 22 12 WSW 1015,5 -
15.07.2019 19:00:00 26,0 22,6 21 11 W 1015,4 -
15.07.2019 18:00:00 26,9 22,3 22 12 W 1015,0 -
15.07.2019 17:00:00 26,8 21,7 - - - 1015,2 -
15.07.2019 16:00:00 27,3 21,5 - - - 1015,3 -
15.07.2019 15:00:00 26,6 23,6 - - - 1015,6 -
15.07.2019 14:00:00 26,4 22,8 - - - 1016,0 -
15.07.2019 13:00:00 25,7 24,2 - - - 1016,2 -
15.07.2019 12:00:00 25,6 24,1 9 5 SSW 1016,6 -
15.07.2019 11:00:00 25,5 24,0 11 6 S 1016,6 -
15.07.2019 10:00:00 24,9 23,3 8 4 S 1016,7 -
15.07.2019 09:00:00 24,8 23,5 8 4 SSE 1016,9 -
15.07.2019 08:00:00 23,5 22,8 9 5 ESE 1016,9 -
15.07.2019 07:00:00 23,0 22,3 4 2 SSE 1017,2 -
15.07.2019 06:00:00 23,0 22,3 2 1 ESE 1017,1 -
15.07.2019 05:00:00 23,1 22,4 8 4 ESE 1017,3 -
15.07.2019 04:00:00 23,2 22,5 4 2 ESE 1017,9 -
15.07.2019 03:00:00 22,5 21,6 0 0 N 1018,1 -
15.07.2019 02:00:00 22,5 20,9 0 0 N 1018,4 -
15.07.2019 01:00:00 - - - - - - -
15.07.2019 00:00:00 - - - - - - -
14.07.2019 23:00:00 23,6 22,7 5 3 ENE 1017,8 -
14.07.2019 22:00:00 - - - - - - -
14.07.2019 21:00:00 - - - - - - -
14.07.2019 20:00:00 26,9 22,5 0 0 N 1016,6 -
14.07.2019 19:00:00 - - - - - - -
14.07.2019 18:00:00 26,0 22,0 2 1 SSE 1016,2 -
14.07.2019 17:00:00 29,1 21,3 8 4 S 1016,3 -
14.07.2019 16:00:00 32,3 17,4 16 9 WSW 1016,0 -
14.07.2019 15:00:00 31,0 18,3 24 13 W 1017,1 -
14.07.2019 14:00:00 30,2 21,8 21 11 W 1017,3 -
14.07.2019 13:00:00 29,4 17,5 5 3 SW 1017,7 -
14.07.2019 12:00:00 30,9 16,8 13 7 NNW 1017,8 -
14.07.2019 11:00:00 28,8 17,6 15 8 WSW 1018,4 -
14.07.2019 10:00:00 24,6 23,2 8 4 SW 1018,8 -
14.07.2019 09:00:00 24,0 23,1 4 2 S 1018,6 -
14.07.2019 08:00:00 22,4 21,8 0 0 N 1018,7 -
14.07.2019 07:00:00 21,1 20,4 0 0 N 1018,7 -
14.07.2019 06:00:00 21,7 20,8 0 0 N 1018,5 -
14.07.2019 05:00:00 23,0 22,3 8 4 WSW 1018,7 -
14.07.2019 04:00:00 23,1 22,4 18 10 WNW 1019,0 -
14.07.2019 03:00:00 23,3 22,0 15 8 WNW 1019,4 -
14.07.2019 02:00:00 23,4 22,0 13 7 WNW 1019,9 -
14.07.2019 01:00:00 23,5 21,9 11 6 W 1020,5 -
14.07.2019 00:00:00 24,2 22,0 16 9 WNW 1020,3 -
13.07.2019 23:00:00 26,0 20,0 2 1 SSW 1020,1 -
13.07.2019 22:00:00 25,7 20,7 9 5 W 1019,6 -
13.07.2019 21:00:00 24,8 22,6 24 13 W 1019,3 -
13.07.2019 20:00:00 25,2 22,0 24 13 WNW 1019,0 -
13.07.2019 19:00:00 27,2 20,5 - - - 1018,9 -
13.07.2019 18:00:00 28,8 14,6 - - - 1019,2 -
13.07.2019 17:00:00 29,3 17,1 - - - 1019,7 -
13.07.2019 16:00:00 29,9 15,6 - - - 1020,2 -
13.07.2019 15:00:00 28,9 23,5 - - - 1020,4 -
13.07.2019 14:00:00 27,2 24,2 - - - 1021,3 -
13.07.2019 13:00:00 27,7 24,7 - - - 1022,0 -
13.07.2019 12:00:00 26,1 24,5 15 8 SW 1022,2 -
13.07.2019 11:00:00 25,0 23,7 9 5 SW 1022,0 -
13.07.2019 10:00:00 25,1 23,7 2 1 SSW 1021,9 -
13.07.2019 09:00:00 22,9 20,2 4 2 S 1022,8 -
13.07.2019 08:00:00 23,6 22,7 8 4 W 1022,7 -
13.07.2019 07:00:00 21,6 20,4 0 0 N 1022,8 -
13.07.2019 06:00:00 21,2 19,6 2 1 NE 1022,7 -
13.07.2019 05:00:00 21,0 17,1 0 0 N 1022,7 -
13.07.2019 04:00:00 21,6 16,0 0 0 N 1022,6 -
13.07.2019 03:00:00 25,0 14,7 5 3 NW 1022,7 -
13.07.2019 02:00:00 23,7 14,3 2 1 ESE 1023,0 -
13.07.2019 01:00:00 24,5 17,7 9 5 NW 1023,2 -
13.07.2019 00:00:00 24,8 18,9 11 6 WNW 1023,5 -
12.07.2019 23:00:00 25,0 19,5 8 4 NW 1023,3 -
12.07.2019 22:00:00 25,1 20,3 4 2 WSW 1022,8 -
12.07.2019 21:00:00 25,4 20,1 18 10 W 1022,0 -
12.07.2019 20:00:00 25,7 20,9 11 6 W 1021,7 0,0
12.07.2019 19:00:00 26,4 22,8 22 12 W 1021,7 -
12.07.2019 18:00:00 27,1 22,9 22 12 W 1021,8 -
12.07.2019 17:00:00 27,4 21,6 22 12 W 1022,1 -
12.07.2019 16:00:00 27,6 20,4 16 9 W 1022,6 -
12.07.2019 15:00:00 27,4 20,4 21 11 W 1022,9 -
12.07.2019 14:00:00 27,2 22,1 21 11 W 1023,1 -
12.07.2019 13:00:00 25,7 23,9 16 9 WSW 1023,5 -
12.07.2019 12:00:00 25,3 21,9 9 5 SSW 1023,7 -
12.07.2019 11:00:00 25,4 22,6 5 3 SW 1023,8 -
12.07.2019 10:00:00 24,3 22,5 2 1 SSW 1023,8 -
12.07.2019 09:00:00 23,5 22,4 4 2 S 1024,2 -
12.07.2019 08:00:00 21,8 21,2 0 0 N 1024,1 -
12.07.2019 07:00:00 - - - - - - -

tt = temperature
td = dewpoint
ff = wind speed
dd = wind direction
ppp = reduced air pressure
rr = precipitation

Next stations